This is the latest recevied weather packets stored in our database for station/object nz4d-1. If no packets are shown the sender has not sent any weather packets the latest 10 day(s).
| Time | Temp. | Humidity | Pressure | Rain* | Wind** | Luminosity | Snow |
|---|---|---|---|---|---|---|---|
| 1777813205 | 10.56° C | 82% | 1019.3 hPa | 0 mm | - | - | - |
| 1777807805 | 6.67° C | 91% | 1018.1 hPa | 0 mm | - | - | - |
| 1777800606 | 10° C | 97% | 1016.1 hPa | 0 mm | - | - | - |
| 1777794005 | 10° C | 97% | 1015.2 hPa | 0 mm | - | - | - |
| 1777791005 | 10° C | 97% | 1014.6 hPa | 0 mm | - | - | - |
| 1777789205 | 10° C | 97% | 1014.5 hPa | 0 mm | - | - | - |
| 1777782604 | 10° C | 97% | 1014.3 hPa | 0 mm | - | - | - |
| 1777782005 | 10° C | 97% | 1014.2 hPa | 0 mm | - | - | - |
| 1777780205 | 10° C | 97% | 1014 hPa | 0 mm | - | - | - |
| 1777779605 | 10° C | 97% | 1014 hPa | 0 mm | - | - | - |
| 1777777205 | 10.56° C | 97% | 1014 hPa | 0 mm | - | - | - |
| 1777775405 | 10.56° C | 97% | 1013.8 hPa | 0 mm | - | - | - |
| 1777774805 | 10.56° C | 97% | 1013.8 hPa | 0 mm | - | - | - |
| 1777584004 | 20.56° C | 65% | 1009.4 hPa | 0 mm | - | - | - |
| 1777567806 | 17.78° C | 83% | 1010.8 hPa | 0 mm | - | - | - |
| 1777560006 | 16.11° C | 95% | 1009.9 hPa | 0 mm | - | - | - |
| 1777558205 | 16.11° C | 97% | 1008.8 hPa | 0 mm | - | - | - |
| 1777557606 | 16.11° C | 97% | 1008.8 hPa | 0 mm | - | - | - |
| 1777555205 | 15.56° C | 97% | 1009.1 hPa | 0.25 mm | - | - | - |
| 1777534805 | 17.22° C | 95% | 1008.1 hPa | 0 mm | - | - | - |
| 1777530005 | 17.78° C | 94% | 1008.9 hPa | 1.02 mm | - | - | - |
| 1777528205 | 18.33° C | 93% | 1009.2 hPa | 3.05 mm | - | - | - |
| 1777523404 | 18.89° C | 93% | 1008.3 hPa | 0 mm | - | - | - |
| 1777522204 | 18.89° C | 93% | 1008 hPa | 0 mm | - | - | - |
| 1777518605 | 18.89° C | 92% | 1008.9 hPa | 0 mm | - | - | - |
* Rain latest hour (hover to see other rain measurements)
** Current wind speed in m/s (hover to see current wind gust speed)